Time;durP1;ratioP1;P1;durP2;ratioP2;P2;SDS_P1;SDS_P2;PMS_P1;PMS_P2;Temp;Humidity;BMP_temperature;BMP_pressure;BME280_temperature;BME280_humidity;BME280_pressure;Samples;Min_cycle;Max_cycle;Signal;HPM_P1;HPM_P2
2022/03/06 00:01:50;;;;;;;21.63;15.02;;;;;;;;;;5031943;28;20081;-75
2022/03/06 00:04:16;;;;;;;19.17;15.48;;;;;;;;;;5025762;28;20049;-75
2022/03/06 00:06:42;;;;;;;20.25;15.18;;;;;;;;;;5030875;28;20037;-75
2022/03/06 00:09:08;;;;;;;20.45;16.45;;;;;;;;;;5031774;28;20048;-75
2022/03/06 00:11:34;;;;;;;21.85;15.23;;;;;;;;;;5010605;28;20048;-75
2022/03/06 00:14:01;;;;;;;20.88;15.32;;;;;;;;;;5016064;28;20451;-75
2022/03/06 00:16:27;;;;;;;26.08;16.63;;;;;;;;;;5029611;28;20033;-75
2022/03/06 00:18:53;;;;;;;22.27;16.17;;;;;;;;;;5035005;28;20117;-75
2022/03/06 00:21:19;;;;;;;19.17;15.52;;;;;;;;;;5010153;28;20033;-75
2022/03/06 00:23:45;;;;;;;22.63;15.45;;;;;;;;;;5032132;28;20124;-75
2022/03/06 00:26:11;;;;;;;23.98;16.92;;;;;;;;;;5026654;28;20041;-75
2022/03/06 00:28:37;;;;;;;20.38;15.88;;;;;;;;;;5027578;28;20064;-75
2022/03/06 00:31:03;;;;;;;23.95;16.67;;;;;;;;;;5027220;28;20033;-75
2022/03/06 00:33:29;;;;;;;24.10;16.80;;;;;;;;;;5029315;28;20029;-75
2022/03/06 00:35:56;;;;;;;21.02;16.30;;;;;;;;;;5028136;28;20052;-75
2022/03/06 00:38:22;;;;;;;25.15;17.00;;;;;;;;;;5023616;28;20042;-75
2022/03/06 00:40:49;;;;;;;22.73;16.50;;;;;;;;;;5033017;28;20526;-75
2022/03/06 00:43:18;;;;;;;22.08;16.35;;;;;;;;;;5034559;28;20551;-74
2022/03/06 00:45:44;;;;;;;24.55;16.48;;;;;;;;;;5017653;28;20037;-75
2022/03/06 00:48:10;;;;;;;21.23;16.95;;;;;;;;;;5030614;28;20491;-75
2022/03/06 00:50:36;;;;;;;22.02;16.75;;;;;;;;;;5029070;28;20510;-75
2022/03/06 00:53:03;;;;;;;21.75;16.92;;;;;;;;;;5031412;28;20044;-75
2022/03/06 00:55:30;;;;;;;21.38;16.85;;;;;;;;;;5015784;28;20476;-74
2022/03/06 00:57:57;;;;;;;23.70;17.10;;;;;;;;;;5032219;28;20571;-75
2022/03/06 01:00:23;;;;;;;19.17;16.13;;;;;;;;;;5030096;28;20471;-75
2022/03/06 01:02:49;;;;;;;20.60;17.17;;;;;;;;;;5027971;28;20415;-75
2022/03/06 01:05:15;;;;;;;21.67;17.25;;;;;;;;;;5025919;28;20670;-75
2022/03/06 01:07:41;;;;;;;21.23;16.77;;;;;;;;;;5029277;28;21674;-75
2022/03/06 01:10:07;;;;;;;23.35;17.40;;;;;;;;;;5029542;28;20392;-75
2022/03/06 01:12:33;;;;;;;23.80;17.33;;;;;;;;;;5014283;28;20368;-75
2022/03/06 01:15:00;;;;;;;22.73;17.05;;;;;;;;;;5028272;28;20443;-74
2022/03/06 01:17:26;;;;;;;24.92;17.15;;;;;;;;;;5022966;28;20073;-75
2022/03/06 01:19:52;;;;;;;19.48;16.35;;;;;;;;;;5013489;28;20467;-74
2022/03/06 01:22:18;;;;;;;21.08;16.95;;;;;;;;;;5028788;28;20495;-75
2022/03/06 01:24:45;;;;;;;21.13;16.48;;;;;;;;;;5029536;28;20407;-75
2022/03/06 01:27:11;;;;;;;21.15;15.55;;;;;;;;;;5027775;28;20544;-75
2022/03/06 01:29:37;;;;;;;21.25;16.27;;;;;;;;;;5012771;28;20077;-75
2022/03/06 01:32:03;;;;;;;21.15;16.42;;;;;;;;;;5025150;28;20424;-75
2022/03/06 01:34:29;;;;;;;19.80;16.42;;;;;;;;;;5029100;28;20030;-75
2022/03/06 01:36:55;;;;;;;20.23;15.90;;;;;;;;;;5028415;28;20037;-75
2022/03/06 01:39:21;;;;;;;20.40;15.95;;;;;;;;;;5011832;28;20373;-75
2022/03/06 01:41:47;;;;;;;20.92;16.25;;;;;;;;;;5022297;28;20463;-74
2022/03/06 01:44:14;;;;;;;21.25;17.38;;;;;;;;;;5029112;28;20403;-75
2022/03/06 01:46:40;;;;;;;21.20;16.00;;;;;;;;;;5017390;28;20558;-75
2022/03/06 01:49:06;;;;;;;24.77;16.70;;;;;;;;;;5026927;28;20073;-75
2022/03/06 01:51:32;;;;;;;20.10;16.20;;;;;;;;;;5029054;28;20397;-75
2022/03/06 01:53:58;;;;;;;22.73;16.60;;;;;;;;;;5024271;28;20420;-75
2022/03/06 01:56:24;;;;;;;23.42;16.23;;;;;;;;;;5003922;28;20084;-75
2022/03/06 01:58:50;;;;;;;20.55;16.35;;;;;;;;;;5023640;28;20045;-75
2022/03/06 02:01:16;;;;;;;22.20;16.85;;;;;;;;;;5026546;28;20080;-75
2022/03/06 02:03:42;;;;;;;23.48;16.70;;;;;;;;;;4994938;28;20038;-75
2022/03/06 02:06:09;;;;;;;21.25;15.75;;;;;;;;;;5033221;28;20068;-74
2022/03/06 02:08:35;;;;;;;21.42;16.65;;;;;;;;;;5028510;28;20143;-75
2022/03/06 02:11:01;;;;;;;20.90;16.77;;;;;;;;;;5028746;28;20153;-75
2022/03/06 02:13:27;;;;;;;22.83;16.25;;;;;;;;;;5028130;28;20037;-75
2022/03/06 02:15:53;;;;;;;19.15;14.95;;;;;;;;;;5030219;28;20044;-75
2022/03/06 02:18:22;;;;;;;18.05;14.55;;;;;;;;;;5028607;28;20436;-75
2022/03/06 02:20:48;;;;;;;22.45;15.43;;;;;;;;;;5026563;28;20099;-75
2022/03/06 02:23:15;;;;;;;21.38;16.20;;;;;;;;;;5029770;28;20116;-75
2022/03/06 02:25:42;;;;;;;19.90;15.68;;;;;;;;;;5032022;28;20033;-74
2022/03/06 02:28:09;;;;;;;19.40;15.75;;;;;;;;;;5028725;28;20389;-74
2022/03/06 02:30:36;;;;;;;21.48;15.38;;;;;;;;;;5026901;28;20037;-75
2022/03/06 02:33:03;;;;;;;24.02;15.57;;;;;;;;;;5029335;28;20504;-75
2022/03/06 02:35:30;;;;;;;21.20;15.48;;;;;;;;;;5032081;28;20179;-75
2022/03/06 02:37:56;;;;;;;20.13;14.90;;;;;;;;;;5030515;28;20041;-74
2022/03/06 02:40:23;;;;;;;20.58;14.90;;;;;;;;;;5015940;28;20408;-75
2022/03/06 02:42:50;;;;;;;20.33;14.45;;;;;;;;;;5030132;28;20427;-75
2022/03/06 02:45:17;;;;;;;17.35;14.18;;;;;;;;;;5031080;28;20705;-75
2022/03/06 02:47:44;;;;;;;19.08;13.73;;;;;;;;;;5031034;28;20388;-75
2022/03/06 02:50:12;;;;;;;17.63;14.73;;;;;;;;;;5028481;28;20440;-75
2022/03/06 02:52:38;;;;;;;19.73;14.18;;;;;;;;;;5030989;28;20029;-75
2022/03/06 02:55:06;;;;;;;17.50;13.57;;;;;;;;;;5016079;28;20415;-75
2022/03/06 02:57:32;;;;;;;18.58;13.43;;;;;;;;;;5039432;28;20451;-75
2022/03/06 02:59:58;;;;;;;20.15;13.63;;;;;;;;;;5031975;28;20499;-75
2022/03/06 03:02:24;;;;;;;19.52;13.88;;;;;;;;;;5029182;28;20638;-75
2022/03/06 03:04:50;;;;;;;18.13;13.48;;;;;;;;;;5031492;28;20045;-75
2022/03/06 03:07:16;;;;;;;18.83;13.45;;;;;;;;;;5031970;28;20694;-75
2022/03/06 03:09:43;;;;;;;18.05;13.57;;;;;;;;;;5030268;28;20037;-75
2022/03/06 03:12:10;;;;;;;16.25;12.95;;;;;;;;;;5030238;28;20488;-75
2022/03/06 03:14:36;;;;;;;17.42;13.75;;;;;;;;;;5029935;28;20037;-75
2022/03/06 03:17:03;;;;;;;19.63;13.85;;;;;;;;;;5013917;28;20396;-75
2022/03/06 03:19:30;;;;;;;20.30;13.75;;;;;;;;;;5029740;28;20385;-75
2022/03/06 03:21:56;;;;;;;15.57;12.80;;;;;;;;;;5031366;28;20053;-75
2022/03/06 03:24:22;;;;;;;19.05;14.02;;;;;;;;;;5030237;28;20400;-75
2022/03/06 03:26:49;;;;;;;18.00;13.02;;;;;;;;;;5030749;28;20045;-75
2022/03/06 03:29:15;;;;;;;18.25;13.32;;;;;;;;;;5030561;28;20046;-75
2022/03/06 03:31:41;;;;;;;18.15;12.70;;;;;;;;;;5031068;28;20043;-75
2022/03/06 03:34:07;;;;;;;18.27;12.77;;;;;;;;;;5029985;28;20056;-75
2022/03/06 03:36:33;;;;;;;19.60;12.57;;;;;;;;;;5034227;28;20412;-75
2022/03/06 03:38:59;;;;;;;16.75;12.15;;;;;;;;;;5010721;28;20791;-75
2022/03/06 03:41:25;;;;;;;16.17;12.13;;;;;;;;;;5030909;28;20451;-75
2022/03/06 03:43:52;;;;;;;18.75;11.85;;;;;;;;;;5028565;28;20045;-75
2022/03/06 03:46:18;;;;;;;17.23;11.88;;;;;;;;;;5029936;28;20511;-75
2022/03/06 03:48:44;;;;;;;18.05;13.00;;;;;;;;;;5027686;28;20045;-75
2022/03/06 03:51:11;;;;;;;17.52;12.25;;;;;;;;;;5031755;28;20083;-75
2022/03/06 03:53:37;;;;;;;17.52;12.00;;;;;;;;;;5013343;28;20083;-75
2022/03/06 03:56:04;;;;;;;16.30;12.27;;;;;;;;;;5009585;28;20048;-75
2022/03/06 03:58:31;;;;;;;17.40;12.25;;;;;;;;;;5023656;28;20140;-75
2022/03/06 04:00:57;;;;;;;17.23;12.23;;;;;;;;;;5013894;28;20045;-75
2022/03/06 04:03:23;;;;;;;17.88;12.18;;;;;;;;;;5014725;28;20091;-75
2022/03/06 04:05:49;;;;;;;16.13;11.93;;;;;;;;;;5033971;28;20132;-75
2022/03/06 04:08:16;;;;;;;18.17;11.77;;;;;;;;;;5044903;28;20045;-75
2022/03/06 04:10:42;;;;;;;16.50;12.27;;;;;;;;;;5028702;28;20037;-75
2022/03/06 04:13:08;;;;;;;17.60;11.52;;;;;;;;;;5028056;28;20099;-75
2022/03/06 04:15:34;;;;;;;16.15;11.65;;;;;;;;;;5028395;28;20116;-75
2022/03/06 04:18:00;;;;;;;15.25;11.73;;;;;;;;;;5029878;28;20033;-75
2022/03/06 04:20:26;;;;;;;16.48;11.77;;;;;;;;;;5029170;28;20186;-75
2022/03/06 04:22:52;;;;;;;16.73;12.65;;;;;;;;;;4999381;28;20049;-75
2022/03/06 04:25:18;;;;;;;16.58;11.48;;;;;;;;;;5023892;28;20041;-75
2022/03/06 04:27:44;;;;;;;15.13;11.30;;;;;;;;;;5030774;28;20048;-75
2022/03/06 04:30:10;;;;;;;16.73;11.63;;;;;;;;;;5027272;28;20038;-75
2022/03/06 04:32:37;;;;;;;15.52;11.73;;;;;;;;;;4996083;28;20034;-75
2022/03/06 04:35:04;;;;;;;14.73;11.43;;;;;;;;;;5029120;28;20124;-75
2022/03/06 04:37:30;;;;;;;14.35;11.07;;;;;;;;;;5031261;28;20041;-75
2022/03/06 04:39:56;;;;;;;14.02;11.43;;;;;;;;;;5025021;28;20049;-75
2022/03/06 04:42:22;;;;;;;16.90;11.20;;;;;;;;;;5013212;28;20051;-75
2022/03/06 04:44:48;;;;;;;16.58;11.35;;;;;;;;;;5028859;28;20052;-75
2022/03/06 04:47:14;;;;;;;16.67;11.80;;;;;;;;;;5029458;28;20052;-75
2022/03/06 04:49:40;;;;;;;16.70;11.43;;;;;;;;;;5026678;28;20038;-75
2022/03/06 04:52:07;;;;;;;13.57;11.80;;;;;;;;;;5029046;28;20049;-75
2022/03/06 04:54:33;;;;;;;16.88;11.45;;;;;;;;;;5028313;28;20037;-75
2022/03/06 04:57:00;;;;;;;16.27;11.65;;;;;;;;;;5022265;28;20115;-75
2022/03/06 04:59:27;;;;;;;13.75;10.65;;;;;;;;;;5011821;28;20046;-75
2022/03/06 05:01:53;;;;;;;15.82;11.30;;;;;;;;;;5030207;28;20396;-75
2022/03/06 05:04:19;;;;;;;16.67;12.05;;;;;;;;;;5025167;28;20510;-75
2022/03/06 05:06:45;;;;;;;15.15;11.27;;;;;;;;;;5042812;28;20041;-75
2022/03/06 05:09:11;;;;;;;15.48;11.00;;;;;;;;;;5029477;28;20045;-75
2022/03/06 05:11:38;;;;;;;16.05;11.02;;;;;;;;;;5029234;28;20124;-75
2022/03/06 05:14:04;;;;;;;16.25;10.60;;;;;;;;;;5030068;28;20124;-75
2022/03/06 05:16:30;;;;;;;16.70;10.77;;;;;;;;;;5028063;28;20037;-75
2022/03/06 05:18:56;;;;;;;16.05;10.27;;;;;;;;;;5012923;28;20753;-75
2022/03/06 05:21:22;;;;;;;18.30;10.65;;;;;;;;;;5028258;28;20037;-75
2022/03/06 05:23:48;;;;;;;14.98;10.73;;;;;;;;;;4994968;28;20072;-75
2022/03/06 05:26:14;;;;;;;15.85;10.40;;;;;;;;;;5009970;28;20041;-75
2022/03/06 05:28:43;;;;;;;14.57;10.20;;;;;;;;;;5031598;28;20443;-75
2022/03/06 05:31:10;;;;;;;14.10;9.68;;;;;;;;;;5027497;28;20037;-75
2022/03/06 05:33:36;;;;;;;14.40;9.48;;;;;;;;;;5029976;28;20049;-75
2022/03/06 05:36:02;;;;;;;13.85;9.10;;;;;;;;;;5027336;28;20048;-75
2022/03/06 05:38:28;;;;;;;12.73;8.90;;;;;;;;;;5023384;28;20503;-75
2022/03/06 05:40:55;;;;;;;15.23;9.40;;;;;;;;;;5027037;28;20041;-75
2022/03/06 05:43:21;;;;;;;13.38;8.85;;;;;;;;;;5009693;28;20037;-75
2022/03/06 05:45:51;;;;;;;11.80;9.05;;;;;;;;;;5024424;28;20768;-75
2022/03/06 05:48:18;;;;;;;13.38;9.38;;;;;;;;;;5010498;28;20802;-75
2022/03/06 05:50:44;;;;;;;12.60;8.25;;;;;;;;;;5025546;28;20520;-75
2022/03/06 05:53:10;;;;;;;14.50;9.32;;;;;;;;;;5028314;28;20641;-75
2022/03/06 05:55:37;;;;;;;11.32;8.18;;;;;;;;;;5025319;28;20522;-75
2022/03/06 05:58:03;;;;;;;11.88;7.97;;;;;;;;;;5013786;28;20038;-75
2022/03/06 06:00:29;;;;;;;14.27;8.13;;;;;;;;;;5029431;28;20434;-75
2022/03/06 06:02:55;;;;;;;11.65;8.05;;;;;;;;;;5030020;28;20075;-75
2022/03/06 06:05:22;;;;;;;9.98;7.78;;;;;;;;;;5026302;28;20639;-75
2022/03/06 06:07:48;;;;;;;11.02;7.75;;;;;;;;;;5028755;28;20454;-75
2022/03/06 06:10:14;;;;;;;11.20;7.38;;;;;;;;;;5031963;28;20038;-75
2022/03/06 06:12:41;;;;;;;12.40;7.13;;;;;;;;;;5032415;28;20038;-75
2022/03/06 06:15:08;;;;;;;13.02;7.32;;;;;;;;;;5031571;28;20438;-75
2022/03/06 06:17:34;;;;;;;9.60;7.25;;;;;;;;;;5028880;28;20120;-75
2022/03/06 06:20:00;;;;;;;11.80;7.30;;;;;;;;;;5031621;28;20404;-75
2022/03/06 06:22:28;;;;;;;14.07;7.70;;;;;;;;;;5032503;28;20037;-75
2022/03/06 06:24:54;;;;;;;14.55;7.82;;;;;;;;;;5032522;28;20439;-75
2022/03/06 06:27:21;;;;;;;10.45;7.20;;;;;;;;;;5016100;28;20140;-75
2022/03/06 06:29:47;;;;;;;10.73;7.40;;;;;;;;;;5032410;28;20045;-75
2022/03/06 06:32:13;;;;;;;13.88;7.13;;;;;;;;;;5030141;28;20033;-75
2022/03/06 06:34:39;;;;;;;11.00;7.35;;;;;;;;;;5032484;28;20064;-75
2022/03/06 06:37:06;;;;;;;11.35;6.80;;;;;;;;;;5025886;28;20041;-75
2022/03/06 06:39:32;;;;;;;10.32;7.32;;;;;;;;;;5031509;28;20041;-75
2022/03/06 06:41:59;;;;;;;12.95;7.20;;;;;;;;;;5031430;28;20041;-75
2022/03/06 06:44:26;;;;;;;10.50;6.90;;;;;;;;;;5015774;28;20049;-75
2022/03/06 06:46:52;;;;;;;11.43;7.40;;;;;;;;;;5030348;28;20041;-75
2022/03/06 06:49:18;;;;;;;8.63;6.45;;;;;;;;;;5033432;28;20751;-75
2022/03/06 06:51:44;;;;;;;9.50;6.80;;;;;;;;;;5030390;28;20065;-75
2022/03/06 06:54:10;;;;;;;12.27;7.10;;;;;;;;;;5031952;28;20053;-75
2022/03/06 06:56:36;;;;;;;9.25;6.57;;;;;;;;;;5013470;28;20037;-75
2022/03/06 06:59:03;;;;;;;9.77;6.55;;;;;;;;;;5029602;28;20137;-75
2022/03/06 07:01:29;;;;;;;13.40;6.22;;;;;;;;;;5029398;28;20049;-75
2022/03/06 07:03:55;;;;;;;9.80;6.38;;;;;;;;;;5031146;28;20060;-75
2022/03/06 07:06:21;;;;;;;10.05;5.90;;;;;;;;;;5029503;28;20041;-75
2022/03/06 07:08:47;;;;;;;11.15;6.32;;;;;;;;;;5026799;28;20095;-75
2022/03/06 07:11:13;;;;;;;9.77;6.15;;;;;;;;;;5047015;28;20982;-75
2022/03/06 07:13:39;;;;;;;8.80;6.28;;;;;;;;;;5030434;28;20120;-75
2022/03/06 07:16:05;;;;;;;10.45;5.95;;;;;;;;;;5030543;28;20038;-76
2022/03/06 07:18:31;;;;;;;8.95;5.50;;;;;;;;;;4995872;28;20132;-76
2022/03/06 07:20:57;;;;;;;11.00;6.38;;;;;;;;;;5031509;28;20046;-75
2022/03/06 07:23:23;;;;;;;10.80;6.25;;;;;;;;;;5029432;28;20132;-75
2022/03/06 07:25:49;;;;;;;9.70;5.82;;;;;;;;;;5033244;28;20101;-76
2022/03/06 07:28:17;;;;;;;8.63;5.07;;;;;;;;;;5030597;28;20132;-75
2022/03/06 07:30:43;;;;;;;8.15;5.22;;;;;;;;;;5029856;28;20499;-75
2022/03/06 07:33:09;;;;;;;8.40;5.20;;;;;;;;;;5009931;28;20038;-75
2022/03/06 07:35:35;;;;;;;7.20;5.30;;;;;;;;;;5025248;28;20403;-74
2022/03/06 07:38:01;;;;;;;8.18;4.88;;;;;;;;;;5010765;28;20037;-75
2022/03/06 07:40:27;;;;;;;10.25;5.45;;;;;;;;;;5012636;28;20049;-74
2022/03/06 07:42:53;;;;;;;9.02;6.38;;;;;;;;;;5031120;28;20083;-74
2022/03/06 07:45:19;;;;;;;9.70;4.95;;;;;;;;;;5016868;28;20037;-74
2022/03/06 07:47:45;;;;;;;6.95;4.50;;;;;;;;;;5011306;28;20071;-73
2022/03/06 07:50:13;;;;;;;8.35;4.97;;;;;;;;;;5013024;28;20041;-74
2022/03/06 07:52:39;;;;;;;8.70;4.45;;;;;;;;;;5030792;28;20037;-74
2022/03/06 07:55:06;;;;;;;5.95;3.97;;;;;;;;;;5028614;28;20037;-74
2022/03/06 07:57:33;;;;;;;6.20;4.13;;;;;;;;;;5030709;28;20049;-74
2022/03/06 07:59:59;;;;;;;7.20;4.47;;;;;;;;;;5042567;28;20048;-73
2022/03/06 08:02:25;;;;;;;7.28;4.18;;;;;;;;;;5046934;28;20051;-74
2022/03/06 08:04:51;;;;;;;4.45;3.53;;;;;;;;;;5014917;28;20033;-74
2022/03/06 08:07:17;;;;;;;4.95;3.15;;;;;;;;;;5021878;28;20090;-74
2022/03/06 08:09:43;;;;;;;5.35;3.85;;;;;;;;;;5030307;28;20041;-75
2022/03/06 08:12:09;;;;;;;6.40;4.00;;;;;;;;;;5013295;28;20052;-75
2022/03/06 08:14:35;;;;;;;6.55;3.70;;;;;;;;;;5030708;28;20053;-75
2022/03/06 08:17:01;;;;;;;6.13;3.35;;;;;;;;;;5030791;28;20111;-75
2022/03/06 08:19:27;;;;;;;6.72;3.88;;;;;;;;;;5032101;28;20045;-75
2022/03/06 08:21:53;;;;;;;4.03;3.05;;;;;;;;;;5031876;28;20136;-75
2022/03/06 08:24:19;;;;;;;5.28;3.47;;;;;;;;;;5009294;28;20041;-75
2022/03/06 08:26:46;;;;;;;3.58;2.72;;;;;;;;;;5028468;28;20152;-75
2022/03/06 08:29:12;;;;;;;4.57;2.78;;;;;;;;;;5013293;28;20041;-75
2022/03/06 08:31:38;;;;;;;5.03;2.92;;;;;;;;;;5025877;28;20044;-75
2022/03/06 08:34:04;;;;;;;4.35;2.60;;;;;;;;;;5028255;28;20030;-75
2022/03/06 08:36:31;;;;;;;5.25;2.80;;;;;;;;;;5034514;28;20128;-75
2022/03/06 08:38:57;;;;;;;4.30;2.50;;;;;;;;;;5033987;28;20045;-75
2022/03/06 08:41:23;;;;;;;4.05;3.05;;;;;;;;;;5027947;28;20033;-75
2022/03/06 08:43:49;;;;;;;5.70;2.72;;;;;;;;;;5028823;28;20135;-75
2022/03/06 08:46:15;;;;;;;7.28;3.10;;;;;;;;;;5030011;28;20064;-75
2022/03/06 08:48:41;;;;;;;4.97;2.70;;;;;;;;;;5028903;28;20099;-75
2022/03/06 08:51:07;;;;;;;5.35;2.95;;;;;;;;;;5029835;28;20041;-75
2022/03/06 08:53:34;;;;;;;4.13;2.85;;;;;;;;;;5047932;22;20053;-73
2022/03/06 08:56:01;;;;;;;5.05;2.95;;;;;;;;;;5026882;28;20515;-73
2022/03/06 08:58:28;;;;;;;5.88;2.88;;;;;;;;;;5014291;28;20049;-71
2022/03/06 09:00:54;;;;;;;5.25;2.78;;;;;;;;;;5013926;28;20083;-73
2022/03/06 09:03:20;;;;;;;6.03;3.00;;;;;;;;;;5011139;28;20048;-73
2022/03/06 09:05:46;;;;;;;5.85;3.85;;;;;;;;;;5030473;28;20045;-73
2022/03/06 09:08:12;;;;;;;3.28;2.60;;;;;;;;;;5027014;28;20034;-70
2022/03/06 09:10:39;;;;;;;6.38;3.03;;;;;;;;;;5024367;28;20562;-73
2022/03/06 09:13:06;;;;;;;4.43;3.10;;;;;;;;;;5018223;28;20041;-73
2022/03/06 09:15:32;;;;;;;6.97;2.90;;;;;;;;;;5021076;28;20037;-74
2022/03/06 09:17:58;;;;;;;3.85;2.80;;;;;;;;;;5019591;28;20495;-72
2022/03/06 09:20:25;;;;;;;7.53;3.05;;;;;;;;;;5025510;28;20545;-73
2022/03/06 09:22:51;;;;;;;6.50;3.00;;;;;;;;;;5021657;28;20104;-72
2022/03/06 09:25:17;;;;;;;4.25;2.95;;;;;;;;;;5017737;28;20081;-72
2022/03/06 09:27:43;;;;;;;5.20;3.15;;;;;;;;;;5021777;28;20037;-73
2022/03/06 09:30:10;;;;;;;5.53;3.13;;;;;;;;;;5021227;28;20126;-72
2022/03/06 09:32:36;;;;;;;3.72;2.75;;;;;;;;;;5022447;28;20042;-73
2022/03/06 09:35:02;;;;;;;3.92;2.80;;;;;;;;;;5024576;28;20033;-71
2022/03/06 09:37:28;;;;;;;4.85;2.70;;;;;;;;;;5029077;28;20041;-73
2022/03/06 09:39:54;;;;;;;5.03;2.78;;;;;;;;;;5024311;28;20412;-72
2022/03/06 09:42:21;;;;;;;3.13;2.72;;;;;;;;;;5021867;28;20049;-73
2022/03/06 09:44:48;;;;;;;6.07;2.53;;;;;;;;;;5025448;28;20052;-72
2022/03/06 09:47:15;;;;;;;3.22;2.83;;;;;;;;;;5025399;28;20052;-72
2022/03/06 09:49:45;;;;;;;6.43;3.20;;;;;;;;;;4991116;28;20033;-73
2022/03/06 09:52:11;;;;;;;6.35;2.92;;;;;;;;;;5025981;28;20043;-72
2022/03/06 09:54:37;;;;;;;4.68;2.70;;;;;;;;;;5025007;28;20041;-72
2022/03/06 09:57:03;;;;;;;4.63;2.75;;;;;;;;;;5007996;28;20045;-73
2022/03/06 09:59:31;;;;;;;4.07;2.67;;;;;;;;;;5023394;28;20135;-71
2022/03/06 10:02:16;;;;;;;3.47;2.80;;;;;;;;;;5022172;28;20557;-72
2022/03/06 10:04:42;;;;;;;8.02;2.97;;;;;;;;;;5024672;28;20049;-72
2022/03/06 10:07:12;;;;;;;4.40;2.50;;;;;;;;;;5024563;28;20103;-76
2022/03/06 10:09:46;;;;;;;5.18;3.05;;;;;;;;;;5011189;28;20393;-75
2022/03/06 10:12:19;;;;;;;5.03;2.63;;;;;;;;;;5024224;28;20044;-73
2022/03/06 10:14:46;;;;;;;4.53;2.63;;;;;;;;;;5024697;28;20049;-73
2022/03/06 10:17:13;;;;;;;3.65;2.60;;;;;;;;;;5022526;28;20049;-72
2022/03/06 10:19:47;;;;;;;6.35;2.60;;;;;;;;;;5024094;28;20033;-73
2022/03/06 10:22:13;;;;;;;4.80;2.58;;;;;;;;;;5025579;28;20073;-72
2022/03/06 10:24:50;;;;;;;3.80;2.40;;;;;;;;;;5023659;28;20046;-72
2022/03/06 10:27:16;;;;;;;3.50;2.15;;;;;;;;;;5009934;28;20038;-73
2022/03/06 10:29:42;;;;;;;5.00;2.70;;;;;;;;;;5025220;28;20038;-73
2022/03/06 10:32:08;;;;;;;3.60;2.20;;;;;;;;;;5008154;28;20034;-72
2022/03/06 10:34:36;;;;;;;4.10;2.45;;;;;;;;;;5023412;28;20049;-73
2022/03/06 10:37:02;;;;;;;3.35;2.28;;;;;;;;;;5026456;28;20033;-73
2022/03/06 10:39:29;;;;;;;4.60;2.67;;;;;;;;;;5021041;28;20049;-72
2022/03/06 10:41:56;;;;;;;3.55;2.38;;;;;;;;;;5024630;28;20071;-73
2022/03/06 10:44:23;;;;;;;5.28;2.70;;;;;;;;;;5025608;28;20522;-73
2022/03/06 10:47:03;;;;;;;3.35;2.20;;;;;;;;;;4992260;28;20068;-73
2022/03/06 10:49:29;;;;;;;2.92;2.50;;;;;;;;;;5026411;28;20055;-73
2022/03/06 10:51:55;;;;;;;5.22;2.35;;;;;;;;;;5023402;28;20398;-73
2022/03/06 10:54:21;;;;;;;3.67;2.08;;;;;;;;;;5009419;28;20045;-72
2022/03/06 10:56:51;;;;;;;4.60;2.47;;;;;;;;;;5023603;28;20042;-73
2022/03/06 10:59:18;;;;;;;3.83;2.38;;;;;;;;;;5026332;28;20049;-73
2022/03/06 11:01:47;;;;;;;6.00;1.98;;;;;;;;;;5024521;28;20049;-72
2022/03/06 11:04:13;;;;;;;3.17;2.40;;;;;;;;;;5025514;28;20038;-72
2022/03/06 11:06:40;;;;;;;4.45;2.40;;;;;;;;;;5023752;28;20029;-73
2022/03/06 11:09:13;;;;;;;5.85;3.25;;;;;;;;;;5021728;28;20072;-73
2022/03/06 11:11:41;;;;;;;8.35;7.32;;;;;;;;;;5025689;28;20120;-72
2022/03/06 11:14:08;;;;;;;6.72;2.80;;;;;;;;;;5023622;28;20072;-72
2022/03/06 11:16:35;;;;;;;3.35;2.25;;;;;;;;;;5025316;28;20449;-71
2022/03/06 11:19:01;;;;;;;2.72;2.00;;;;;;;;;;5020719;28;20090;-72
2022/03/06 11:21:28;;;;;;;3.17;2.20;;;;;;;;;;5022693;28;20042;-71
2022/03/06 11:23:57;;;;;;;4.20;2.25;;;;;;;;;;5009210;28;20045;-73
2022/03/06 11:26:26;;;;;;;2.38;1.98;;;;;;;;;;5021758;28;20053;-70
2022/03/06 11:28:52;;;;;;;4.05;2.22;;;;;;;;;;5022583;28;20041;-72
2022/03/06 11:31:18;;;;;;;4.47;2.20;;;;;;;;;;5010610;28;20440;-73
2022/03/06 11:33:55;;;;;;;3.53;2.13;;;;;;;;;;5023424;28;20045;-73
2022/03/06 11:36:23;;;;;;;4.75;2.60;;;;;;;;;;5023274;28;20033;-73
2022/03/06 11:38:51;;;;;;;3.80;2.03;;;;;;;;;;5021459;28;20103;-73
2022/03/06 11:41:17;;;;;;;2.83;2.50;;;;;;;;;;5022464;28;20129;-72
2022/03/06 11:43:47;;;;;;;4.70;2.05;;;;;;;;;;5021690;28;20042;-72
2022/03/06 11:46:17;;;;;;;2.88;2.22;;;;;;;;;;5025957;28;20041;-72
2022/03/06 11:48:46;;;;;;;3.78;2.40;;;;;;;;;;5023108;28;20045;-73
2022/03/06 11:51:17;;;;;;;4.00;2.25;;;;;;;;;;5028645;28;20738;-72
2022/03/06 11:53:46;;;;;;;5.43;2.47;;;;;;;;;;5027034;28;20133;-73
2022/03/06 11:56:31;;;;;;;5.18;2.20;;;;;;;;;;5025726;28;20431;-73
2022/03/06 11:58:57;;;;;;;3.53;2.40;;;;;;;;;;5024905;28;20054;-73
2022/03/06 12:01:33;;;;;;;3.65;2.25;;;;;;;;;;5024885;28;20049;-73
2022/03/06 12:04:15;;;;;;;5.82;2.17;;;;;;;;;;5026497;28;20057;-73
2022/03/06 12:06:42;;;;;;;4.55;1.95;;;;;;;;;;5025845;28;20048;-77
2022/03/06 12:09:16;;;;;;;33.17;29.45;;;;;;;;;;5023465;28;20046;-77
2022/03/06 12:11:43;;;;;;;5.22;2.40;;;;;;;;;;5032797;28;20504;-77
2022/03/06 12:14:17;;;;;;;4.90;2.00;;;;;;;;;;5030994;28;20042;-77
2022/03/06 12:17:02;;;;;;;5.63;2.17;;;;;;;;;;5027203;28;20453;-78
2022/03/06 12:19:32;;;;;;;6.30;2.42;;;;;;;;;;5028963;28;20033;-77
2022/03/06 12:22:11;;;;;;;4.50;2.50;;;;;;;;;;5028158;28;20048;-77
2022/03/06 12:24:37;;;;;;;7.10;2.40;;;;;;;;;;5028465;28;20080;-77
2022/03/06 12:27:13;;;;;;;3.40;2.30;;;;;;;;;;5013729;28;20033;-78
2022/03/06 12:29:49;;;;;;;3.35;2.25;;;;;;;;;;5023616;28;20061;-78
2022/03/06 12:32:27;;;;;;;4.85;2.30;;;;;;;;;;5012161;28;20041;-79
2022/03/06 12:35:04;;;;;;;3.95;2.05;;;;;;;;;;5028004;28;20044;-78
2022/03/06 12:37:31;;;;;;;4.30;2.10;;;;;;;;;;5021566;28;20040;-78
2022/03/06 12:39:58;;;;;;;4.53;2.40;;;;;;;;;;5030684;28;20045;-79
2022/03/06 13:04:51;;;;;;;4.22;2.55;;;;;;;;;;4949513;29;20054;-78
2022/03/06 13:11:56;;;;;;;4.60;2.53;;;;;;;;;;4865459;29;20060;-78
2022/03/06 13:15:48;;;;;;;5.20;2.58;;;;;;;;;;4871028;29;20048;-78
2022/03/06 13:22:33;;;;;;;5.95;2.53;;;;;;;;;;4879114;29;20062;-77
2022/03/06 13:25:00;;;;;;;5.15;2.60;;;;;;;;;;4937719;28;20744;-77
2022/03/06 13:27:27;;;;;;;4.88;2.85;;;;;;;;;;4999161;28;20471;-77
2022/03/06 13:30:05;;;;;;;5.05;2.55;;;;;;;;;;5024152;28;20049;-77
2022/03/06 13:32:33;;;;;;;6.15;2.60;;;;;;;;;;5028668;28;20057;-77
2022/03/06 13:34:59;;;;;;;4.43;2.15;;;;;;;;;;5027138;28;20495;-76
2022/03/06 13:37:33;;;;;;;5.95;2.40;;;;;;;;;;5028157;28;20487;-77
2022/03/06 13:39:59;;;;;;;5.55;2.40;;;;;;;;;;5022641;28;20397;-77
2022/03/06 13:42:32;;;;;;;8.90;5.97;;;;;;;;;;5018708;28;20038;-77
2022/03/06 13:44:58;;;;;;;4.75;2.30;;;;;;;;;;5025385;28;20582;-78
2022/03/06 13:47:24;;;;;;;3.95;2.78;;;;;;;;;;5025385;28;20562;-77
2022/03/06 13:50:01;;;;;;;5.03;2.47;;;;;;;;;;5008624;28;20100;-77
2022/03/06 13:52:34;;;;;;;5.40;2.58;;;;;;;;;;5021234;28;20040;-77
2022/03/06 13:55:07;;;;;;;6.03;2.80;;;;;;;;;;5023264;28;20431;-77
2022/03/06 13:57:34;;;;;;;4.05;2.50;;;;;;;;;;5025842;28;20511;-77
2022/03/06 14:00:20;;;;;;;5.25;2.60;;;;;;;;;;5023173;28;20042;-77
2022/03/06 14:02:47;;;;;;;6.40;2.90;;;;;;;;;;5023845;28;20395;-77
2022/03/06 14:05:13;;;;;;;5.70;2.53;;;;;;;;;;5026558;28;20544;-77
2022/03/06 14:07:39;;;;;;;7.60;2.58;;;;;;;;;;5009547;28;20192;-77
2022/03/06 14:10:05;;;;;;;5.18;2.40;;;;;;;;;;5024039;28;20520;-77
2022/03/06 14:12:35;;;;;;;6.82;2.53;;;;;;;;;;5028205;28;20525;-77
2022/03/06 14:15:01;;;;;;;3.38;2.40;;;;;;;;;;5025702;28;20397;-77
2022/03/06 14:17:27;;;;;;;3.20;2.30;;;;;;;;;;5027054;28;20484;-77
2022/03/06 14:20:00;;;;;;;5.93;2.50;;;;;;;;;;5026647;28;20041;-77
2022/03/06 14:22:26;;;;;;;4.30;2.63;;;;;;;;;;5025102;28;20458;-77
2022/03/06 14:24:52;;;;;;;4.10;2.50;;;;;;;;;;5031673;28;20045;-77
2022/03/06 14:27:18;;;;;;;4.65;2.38;;;;;;;;;;5026707;28;20400;-77
2022/03/06 14:29:46;;;;;;;5.65;2.78;;;;;;;;;;5029083;28;20108;-77
2022/03/06 14:32:12;;;;;;;4.28;2.97;;;;;;;;;;5025587;28;20056;-77
2022/03/06 14:34:38;;;;;;;3.55;2.30;;;;;;;;;;5015343;28;20494;-77
2022/03/06 14:37:05;;;;;;;4.85;2.53;;;;;;;;;;5029162;28;20396;-77
2022/03/06 14:39:31;;;;;;;4.47;2.45;;;;;;;;;;5026523;28;20602;-77
2022/03/06 14:41:58;;;;;;;5.07;2.40;;;;;;;;;;5030702;28;20678;-77
2022/03/06 14:44:24;;;;;;;11.13;8.45;;;;;;;;;;5027835;28;20403;-77
2022/03/06 14:46:51;;;;;;;4.13;2.42;;;;;;;;;;5029766;28;20120;-77
2022/03/06 14:49:18;;;;;;;5.25;2.60;;;;;;;;;;5027351;28;20475;-77
2022/03/06 14:51:45;;;;;;;3.53;2.60;;;;;;;;;;5026173;28;20116;-77
2022/03/06 14:54:11;;;;;;;3.38;2.67;;;;;;;;;;5031362;28;20523;-77
2022/03/06 14:56:38;;;;;;;4.80;2.42;;;;;;;;;;5034447;28;20376;-78
2022/03/06 14:59:05;;;;;;;4.80;2.92;;;;;;;;;;5021215;28;20042;-78
2022/03/06 15:01:31;;;;;;;5.95;3.08;;;;;;;;;;5030314;28;20409;-78
2022/03/06 15:03:59;;;;;;;6.05;2.70;;;;;;;;;;5031890;28;20364;-79